Time,TemperatureF,DewpointF,PressureIn,WindDirection,WindDirectionDegrees,WindSpeedMPH,WindSpeedGustMPH,Humidity,HourlyPrecipIn,Conditions,Clouds,dailyrainin,SoftwareType,DateUTC
2013-11-22 00:21:00,63.0,61.0,-100.00,East,89,1.0,2.0,94,0.00,,,0.00,,2013-11-22 06:21:00,
2013-11-22 00:32:00,63.0,61.0,-100.00,East,89,1.0,2.0,94,0.00,,,0.00,,2013-11-22 06:32:00,
2013-11-22 00:42:00,63.0,61.0,-100.00,East,89,1.0,2.0,94,0.00,,,0.00,,2013-11-22 06:42:00,
2013-11-22 01:21:00,63.0,61.0,-100.00,SSE,155,1.0,3.0,94,0.00,,,0.00,,2013-11-22 07:21:00,
2013-11-22 01:32:00,63.0,61.0,-100.00,SSE,155,1.0,3.0,94,0.00,,,0.00,,2013-11-22 07:32:00,
2013-11-22 01:42:00,63.0,61.0,-100.00,SSE,155,1.0,3.0,94,0.00,,,0.00,,2013-11-22 07:42:00,
2013-11-22 02:11:00,63.0,61.0,-100.00,ESE,113,1.0,3.0,94,0.00,,,0.00,,2013-11-22 08:11:00,
2013-11-22 02:21:00,63.0,61.0,-100.00,ESE,113,1.0,3.0,94,0.00,,,0.00,,2013-11-22 08:21:00,
2013-11-22 02:32:00,63.0,61.0,-100.00,ESE,113,1.0,3.0,94,0.00,,,0.00,,2013-11-22 08:32:00,
2013-11-22 02:42:00,63.0,61.0,-100.00,ESE,113,1.0,3.0,94,0.00,,,0.00,,2013-11-22 08:42:00,
2013-11-22 03:11:00,61.0,60.0,-100.00,NE,37,0.0,2.0,98,0.00,,,0.00,,2013-11-22 09:11:00,
2013-11-22 03:21:00,61.0,60.0,-100.00,NE,37,0.0,2.0,98,0.00,,,0.00,,2013-11-22 09:21:00,
2013-11-22 03:34:00,61.0,60.0,-100.00,NE,37,0.0,2.0,98,0.00,,,0.00,,2013-11-22 09:34:00,
2013-11-22 03:43:00,61.0,60.0,-100.00,NE,37,0.0,2.0,98,0.00,,,0.00,,2013-11-22 09:43:00,
2013-11-22 04:13:00,61.0,61.0,-100.00,NNW,327,1.0,1.0,100,0.00,,,0.00,,2013-11-22 10:13:00,
2013-11-22 04:23:00,61.0,61.0,-100.00,NNW,327,1.0,1.0,100,0.00,,,0.00,,2013-11-22 10:23:00,
2013-11-22 04:33:00,61.0,61.0,-100.00,NNW,327,1.0,1.0,100,0.00,,,0.00,,2013-11-22 10:33:00,
2013-11-22 04:42:00,61.0,61.0,-100.00,NNW,327,1.0,1.0,100,0.00,,,0.00,,2013-11-22 10:42:00,
2013-11-22 05:12:00,61.0,61.0,-100.00,NNE,24,0.0,2.0,100,0.00,,,0.00,,2013-11-22 11:12:00,
2013-11-22 05:22:00,61.0,61.0,-100.00,NNE,24,0.0,2.0,100,0.00,,,0.00,,2013-11-22 11:22:00,
2013-11-22 05:33:00,61.0,61.0,-100.00,NNE,24,0.0,2.0,100,0.00,,,0.00,,2013-11-22 11:33:00,
2013-11-22 05:42:00,61.0,61.0,-100.00,NNE,24,0.0,2.0,100,0.00,,,0.00,,2013-11-22 11:42:00,
2013-11-22 06:12:00,60.0,60.0,-100.00,NNW,336,2.0,3.0,100,0.00,,,0.00,,2013-11-22 12:12:00,
2013-11-22 06:22:00,60.0,60.0,-100.00,NNW,336,2.0,3.0,100,0.00,,,0.00,,2013-11-22 12:22:00,
2013-11-22 06:32:00,60.0,60.0,-100.00,NNW,336,2.0,3.0,100,0.00,,,0.00,,2013-11-22 12:32:00,
2013-11-22 06:42:00,60.0,60.0,-100.00,NNW,336,2.0,3.0,100,0.00,,,0.00,,2013-11-22 12:42:00,
2013-11-22 07:11:00,60.0,60.0,-100.00,East,97,1.0,3.0,100,0.00,,,0.00,,2013-11-22 13:11:00,
2013-11-22 07:22:00,60.0,60.0,-100.00,East,97,1.0,3.0,100,0.00,,,0.00,,2013-11-22 13:22:00,
2013-11-22 07:32:00,60.0,60.0,-100.00,East,97,1.0,3.0,100,0.00,,,0.00,,2013-11-22 13:32:00,
2013-11-22 07:42:00,60.0,60.0,-100.00,East,97,1.0,3.0,100,0.00,,,0.00,,2013-11-22 13:42:00,
2013-11-22 08:22:00,64.0,64.0,-100.00,ESE,117,2.0,4.0,100,0.00,,,0.00,,2013-11-22 14:22:00,
2013-11-22 08:32:00,64.0,64.0,-100.00,ESE,117,2.0,4.0,100,0.00,,,0.00,,2013-11-22 14:32:00,
2013-11-22 08:42:00,64.0,64.0,-100.00,ESE,117,2.0,4.0,100,0.00,,,0.00,,2013-11-22 14:42:00,
2013-11-22 09:22:00,73.0,67.0,-100.00,East,99,3.0,6.0,82,0.00,,,0.00,,2013-11-22 15:22:00,
2013-11-22 09:34:00,73.0,67.0,-100.00,East,99,3.0,6.0,82,0.00,,,0.00,,2013-11-22 15:34:00,
2013-11-22 09:43:00,73.0,67.0,-100.00,East,99,3.0,6.0,82,0.00,,,0.00,,2013-11-22 15:43:00,
2013-11-22 10:13:00,77.0,68.0,-100.00,SSE,163,3.0,9.0,74,0.00,,,0.00,,2013-11-22 16:13:00,
2013-11-22 10:23:00,77.0,68.0,-100.00,SSE,163,3.0,9.0,74,0.00,,,0.00,,2013-11-22 16:23:00,
2013-11-22 10:33:00,77.0,68.0,-100.00,SSE,163,3.0,9.0,74,0.00,,,0.00,,2013-11-22 16:33:00,
2013-11-22 10:43:00,77.0,68.0,-100.00,SSE,163,3.0,9.0,74,0.00,,,0.00,,2013-11-22 16:43:00,
2013-11-22 11:22:00,76.0,69.0,-100.00,SW,231,2.0,5.0,80,0.00,,,0.00,,2013-11-22 17:22:00,
2013-11-22 11:34:00,76.0,69.0,-100.00,SW,231,2.0,5.0,80,0.00,,,0.00,,2013-11-22 17:34:00,
2013-11-22 11:42:00,76.0,69.0,-100.00,SW,231,2.0,5.0,80,0.00,,,0.00,,2013-11-22 17:42:00,
2013-11-22 12:12:00,78.0,70.0,-100.00,SSW,213,2.0,6.0,76,0.00,,,0.00,,2013-11-22 18:12:00,
2013-11-22 12:21:00,78.0,70.0,-100.00,SSW,213,2.0,6.0,76,0.00,,,0.00,,2013-11-22 18:21:00,
2013-11-22 12:33:00,78.0,70.0,-100.00,SSW,213,2.0,6.0,76,0.00,,,0.00,,2013-11-22 18:33:00,
2013-11-22 12:42:00,78.0,70.0,-100.00,SSW,213,2.0,6.0,76,0.00,,,0.00,,2013-11-22 18:42:00,
2013-11-22 13:11:00,78.0,70.0,-100.00,SSW,192,3.0,5.0,76,0.00,,,0.00,,2013-11-22 19:11:00,
2013-11-22 13:22:00,78.0,70.0,-100.00,SSW,192,3.0,5.0,76,0.00,,,0.00,,2013-11-22 19:22:00,
2013-11-22 13:32:00,78.0,70.0,-100.00,SSW,192,3.0,5.0,76,0.00,,,0.00,,2013-11-22 19:32:00,
2013-11-22 13:42:00,78.0,70.0,-100.00,SSW,192,3.0,5.0,76,0.00,,,0.00,,2013-11-22 19:42:00,
2013-11-22 14:11:00,77.0,69.0,-100.00,WNW,295,2.0,6.0,77,0.00,,,0.00,,2013-11-22 20:11:00,
2013-11-22 14:22:00,77.0,69.0,-100.00,WNW,295,2.0,6.0,77,0.00,,,0.00,,2013-11-22 20:22:00,
2013-11-22 14:32:00,77.0,69.0,-100.00,WNW,295,2.0,6.0,77,0.00,,,0.00,,2013-11-22 20:32:00,
2013-11-22 14:42:00,77.0,69.0,-100.00,WNW,295,2.0,6.0,77,0.00,,,0.00,,2013-11-22 20:42:00,
2013-11-22 15:22:00,74.0,68.0,-100.00,SSE,160,3.0,8.0,81,0.03,,,0.03,,2013-11-22 21:22:00,
2013-11-22 15:33:00,74.0,68.0,-100.00,SSE,160,3.0,8.0,81,0.03,,,0.03,,2013-11-22 21:33:00,
2013-11-22 15:43:00,74.0,68.0,-100.00,SSE,160,3.0,8.0,81,0.03,,,0.03,,2013-11-22 21:43:00,
2013-11-22 16:13:00,71.0,69.0,-100.00,West,276,1.0,7.0,93,0.00,,,0.03,,2013-11-22 22:13:00,
2013-11-22 16:23:00,71.0,69.0,-100.00,West,276,1.0,7.0,93,0.00,,,0.03,,2013-11-22 22:23:00,
2013-11-22 16:33:00,71.0,69.0,-100.00,West,276,1.0,7.0,93,0.00,,,0.03,,2013-11-22 22:33:00,
2013-11-22 16:42:00,71.0,69.0,-100.00,West,276,1.0,7.0,93,0.00,,,0.03,,2013-11-22 22:42:00,
2013-11-22 17:22:00,70.0,68.0,-100.00,SSW,194,2.0,4.0,94,0.00,,,0.03,,2013-11-22 23:22:00,
2013-11-22 17:33:00,70.0,68.0,-100.00,SSW,194,2.0,4.0,94,0.00,,,0.03,,2013-11-22 23:33:00,
2013-11-22 17:42:00,70.0,68.0,-100.00,SSW,194,2.0,4.0,94,0.00,,,0.03,,2013-11-22 23:42:00,
2013-11-22 18:12:00,69.0,69.0,-100.00,South,173,2.0,4.0,100,0.00,,,0.03,,2013-11-23 00:12:00,
2013-11-22 18:21:00,69.0,69.0,-100.00,South,173,2.0,4.0,100,0.00,,,0.03,,2013-11-23 00:21:00,
2013-11-22 18:32:00,69.0,69.0,-100.00,South,173,2.0,4.0,100,0.00,,,0.03,,2013-11-23 00:32:00,
2013-11-22 18:42:00,69.0,69.0,-100.00,South,173,2.0,4.0,100,0.00,,,0.03,,2013-11-23 00:42:00,
2013-11-22 19:21:00,69.0,68.0,-100.00,NW,323,2.0,6.0,98,0.00,,,0.03,,2013-11-23 01:21:00,
2013-11-22 19:32:00,69.0,68.0,-100.00,NW,323,2.0,6.0,98,0.00,,,0.03,,2013-11-23 01:32:00,
2013-11-22 19:42:00,69.0,68.0,-100.00,NW,323,2.0,6.0,98,0.00,,,0.03,,2013-11-23 01:42:00,
2013-11-22 20:22:00,68.0,68.0,-100.00,North,359,2.0,3.0,99,0.00,,,0.03,,2013-11-23 02:22:00,
2013-11-22 20:32:00,68.0,68.0,-100.00,North,359,2.0,3.0,99,0.00,,,0.03,,2013-11-23 02:32:00,
2013-11-22 20:42:00,68.0,68.0,-100.00,North,359,2.0,3.0,99,0.00,,,0.03,,2013-11-23 02:42:00,
2013-11-22 21:22:00,67.0,66.0,-100.00,NNW,337,1.0,3.0,98,0.00,,,0.03,,2013-11-23 03:22:00,
2013-11-22 21:33:00,67.0,66.0,-100.00,NNW,337,1.0,3.0,98,0.00,,,0.03,,2013-11-23 03:33:00,
2013-11-22 21:43:00,67.0,66.0,-100.00,NNW,337,1.0,3.0,98,0.00,,,0.03,,2013-11-23 03:43:00,
2013-11-22 22:23:00,66.0,65.0,-100.00,NW,318,2.0,6.0,95,0.00,,,0.03,,2013-11-23 04:23:00,
2013-11-22 22:33:00,66.0,65.0,-100.00,NW,318,2.0,6.0,95,0.00,,,0.03,,2013-11-23 04:33:00,
2013-11-22 22:43:00,66.0,65.0,-100.00,NW,318,2.0,6.0,95,0.00,,,0.03,,2013-11-23 04:43:00,
2013-11-22 23:22:00,65.0,64.0,-100.00,NNW,328,2.0,4.0,96,0.00,,,0.03,,2013-11-23 05:22:00,
2013-11-22 23:33:00,65.0,64.0,-100.00,NNW,328,2.0,4.0,96,0.00,,,0.03,,2013-11-23 05:33:00,
2013-11-22 23:42:00,65.0,64.0,-100.00,NNW,328,2.0,4.0,96,0.00,,,0.03,,2013-11-23 05:42:00,